Cincinnati, OH

5:56 PM EDT on July 01, 2015 (GMT -0400)
Newport Aquarium | | Change Station
CLOSE
Current Station
Personal Weather Station
Location: Newport, KY
Elevation: 499 ft
Nearby Weather Stations

Elev 499 ft 39.09 °N, 84.50 °W | Updated 2 minutes ago

Partly Cloudy
Partly Cloudy
84.1 °F
Feels Like 84 °F
N
0.0
Wind Variable Wind from SSW
Gusts 5.0 mph

Today
High -- | Low -- °F
--% Chance of Precip.
Yesterday
High -- | Low -- °F
Precip. -- in
6:15 AM 9:07 PM
Full, 100% visible
Pressure 29.89 in
Visibility 10.0 miles
Clouds Few 5000 ft
Heat Index 84 °F
Dew Point 60 °F
Humidity 45%
Rainfall 0.00 in
Snow Depth Not available.
UV 0.6 out of 12
Pollen 3.10 out of 12
Air Quality Not available.
Flu Activity Not available.
METAR KLUK 012153Z 00000KT 10SM FEW050 26/15 A2989 RMK AO2 SLP120 T02610150

More Conditions Fewer Conditions

Pressure 29.89 in
Visibility 10.0 miles
Clouds Few 5000 ft
Heat Index 84 °F
Dew Point 60 °F
Humidity 45%
Rainfall 0.00 in
Snow Depth Not available.
UV 0.6 out of 12
Pollen 3.10 out of 12
Air Quality Not available.
Flu Activity Not available.
METAR KLUK 012153Z 00000KT 10SM FEW050 26/15 A2989 RMK AO2 SLP120 T02610150

More Conditions Fewer Conditions

10-Day Weather Forecast

×

Almanac

Astronomy

Jul. 01, 2015 Rise Set
Actual Time
Civil Twilight
Nautical Twilight
Astronomical Twilight
Moon
Length of Visible Light
Length of Day
Tomorrow will be .
, % of the Moon is Illuminated

Today's Extremes

State Highs State Lows

Community

WunderPhotos

Upload Photos

1,834,295 photos uploaded!

WunderBlogs® & News

Nearby

Air Quality

  Air Quality AQ Index Pollutant
Not available.

Snow Depth

Station Depth Elevation

Earthquake Activity

City Distance Mag. Time & Date
Minimum magnitude displayed is 2.5.

Coastal Water Temperatures

Place Temperature

Stations

Nearby Weather Stations

Station Location Temp. Windchill Dew Point Humidity Wind Precip. Elev Updated Type